Terminal Aerodrome Forecast
Issued by NWS

Home | Current Version | Previous Version | Text Only | Print | Product List | Glossary On
Versions: 1 2 3 4 5 6 7 8 9 10 11 12 13 14 15 16 17
000
FTUS43 KJKL 050806 AAA
TAFSJS
TAF AMD
KSJS 050806Z 0508/0606 01006KT 5SM -RA BKN007 OVC013
     FM051000 04006KT 2SM -SN OVC005
     FM051600 26007KT 3SM -SN SCT005 OVC010
     FM052300 03006KT P6SM BKN020=

USA.gov is the U.S. government's official web portal to all federal, state and local government web resources and services.